sensor_id;sensor_type;location;lat;lon;timestamp;temperature;humidity
49385;DHT22;36795;45.028;38.968;2022-07-09T00:02:21;26.00;72.70
49385;DHT22;36795;45.028;38.968;2022-07-09T00:05:07;26.00;72.70
49385;DHT22;36795;45.028;38.968;2022-07-09T00:07:54;26.00;72.70
49385;DHT22;36795;45.028;38.968;2022-07-09T00:10:40;26.00;72.60
49385;DHT22;36795;45.028;38.968;2022-07-09T00:13:27;25.90;72.60
49385;DHT22;36795;45.028;38.968;2022-07-09T00:16:13;25.90;72.70
49385;DHT22;36795;45.028;38.968;2022-07-09T00:18:59;25.80;72.70
49385;DHT22;36795;45.028;38.968;2022-07-09T00:21:45;25.80;72.90
49385;DHT22;36795;45.028;38.968;2022-07-09T00:24:31;25.80;73.10
49385;DHT22;36795;45.028;38.968;2022-07-09T00:27:17;25.70;73.10
49385;DHT22;36795;45.028;38.968;2022-07-09T00:30:03;25.80;73.10
49385;DHT22;36795;45.028;38.968;2022-07-09T00:32:49;25.80;73.20
49385;DHT22;36795;45.028;38.968;2022-07-09T00:35:35;25.70;73.00
49385;DHT22;36795;45.028;38.968;2022-07-09T00:38:22;25.70;72.90
49385;DHT22;36795;45.028;38.968;2022-07-09T00:41:07;25.70;72.80
49385;DHT22;36795;45.028;38.968;2022-07-09T00:43:54;25.70;72.70
49385;DHT22;36795;45.028;38.968;2022-07-09T00:46:39;25.70;73.20
49385;DHT22;36795;45.028;38.968;2022-07-09T00:49:29;25.70;72.60
49385;DHT22;36795;45.028;38.968;2022-07-09T00:52:16;25.70;72.70
49385;DHT22;36795;45.028;38.968;2022-07-09T00:55:05;25.60;72.60
49385;DHT22;36795;45.028;38.968;2022-07-09T00:57:52;25.70;72.80
49385;DHT22;36795;45.028;38.968;2022-07-09T01:00:39;25.60;72.70
49385;DHT22;36795;45.028;38.968;2022-07-09T01:03:27;25.60;72.70
49385;DHT22;36795;45.028;38.968;2022-07-09T01:06:13;25.70;72.70
49385;DHT22;36795;45.028;38.968;2022-07-09T01:09:02;25.70;72.70
49385;DHT22;36795;45.028;38.968;2022-07-09T01:11:48;25.70;72.70
49385;DHT22;36795;45.028;38.968;2022-07-09T01:14:34;25.60;72.60
49385;DHT22;36795;45.028;38.968;2022-07-09T01:17:21;25.60;72.50
49385;DHT22;36795;45.028;38.968;2022-07-09T01:20:07;25.60;72.60
49385;DHT22;36795;45.028;38.968;2022-07-09T01:22:53;25.60;72.60
49385;DHT22;36795;45.028;38.968;2022-07-09T01:25:43;25.50;72.50
49385;DHT22;36795;45.028;38.968;2022-07-09T01:28:30;25.50;72.40
49385;DHT22;36795;45.028;38.968;2022-07-09T01:31:16;25.50;72.50
49385;DHT22;36795;45.028;38.968;2022-07-09T01:34:03;25.50;72.30
49385;DHT22;36795;45.028;38.968;2022-07-09T01:36:49;25.50;72.30
49385;DHT22;36795;45.028;38.968;2022-07-09T01:39:35;25.50;72.20
49385;DHT22;36795;45.028;38.968;2022-07-09T01:42:35;25.50;72.10
49385;DHT22;36795;45.028;38.968;2022-07-09T01:45:21;25.50;71.40
49385;DHT22;36795;45.028;38.968;2022-07-09T01:48:07;25.50;71.20
49385;DHT22;36795;45.028;38.968;2022-07-09T01:50:54;25.50;71.20
49385;DHT22;36795;45.028;38.968;2022-07-09T01:53:40;25.60;71.30
49385;DHT22;36795;45.028;38.968;2022-07-09T01:56:27;25.50;71.20
49385;DHT22;36795;45.028;38.968;2022-07-09T01:59:13;25.50;71.20
49385;DHT22;36795;45.028;38.968;2022-07-09T02:01:59;25.60;71.20
49385;DHT22;36795;45.028;38.968;2022-07-09T02:04:46;25.60;71.30
49385;DHT22;36795;45.028;38.968;2022-07-09T02:07:32;25.60;71.40
49385;DHT22;36795;45.028;38.968;2022-07-09T02:10:19;25.60;71.50
49385;DHT22;36795;45.028;38.968;2022-07-09T02:13:05;25.60;71.50
49385;DHT22;36795;45.028;38.968;2022-07-09T02:15:51;25.60;71.50
49385;DHT22;36795;45.028;38.968;2022-07-09T02:18:37;25.60;71.70
49385;DHT22;36795;45.028;38.968;2022-07-09T02:21:24;25.60;71.70
49385;DHT22;36795;45.028;38.968;2022-07-09T02:24:10;25.60;71.80
49385;DHT22;36795;45.028;38.968;2022-07-09T02:26:56;25.60;71.90
49385;DHT22;36795;45.028;38.968;2022-07-09T02:29:42;25.60;71.90
49385;DHT22;36795;45.028;38.968;2022-07-09T02:32:28;25.60;71.90
49385;DHT22;36795;45.028;38.968;2022-07-09T02:35:14;25.60;72.00
49385;DHT22;36795;45.028;38.968;2022-07-09T02:38:00;25.50;71.90
49385;DHT22;36795;45.028;38.968;2022-07-09T02:40:46;25.50;71.90
49385;DHT22;36795;45.028;38.968;2022-07-09T02:43:32;25.50;72.00
49385;DHT22;36795;45.028;38.968;2022-07-09T02:46:18;25.60;72.10
49385;DHT22;36795;45.028;38.968;2022-07-09T02:49:04;25.60;72.10
49385;DHT22;36795;45.028;38.968;2022-07-09T02:51:49;25.70;72.20
49385;DHT22;36795;45.028;38.968;2022-07-09T02:54:37;25.60;72.00
49385;DHT22;36795;45.028;38.968;2022-07-09T02:57:24;25.60;72.30
49385;DHT22;36795;45.028;38.968;2022-07-09T03:00:10;25.60;72.30
49385;DHT22;36795;45.028;38.968;2022-07-09T03:02:56;25.60;72.10
49385;DHT22;36795;45.028;38.968;2022-07-09T03:05:43;25.60;71.90
49385;DHT22;36795;45.028;38.968;2022-07-09T03:08:29;25.70;71.80
49385;DHT22;36795;45.028;38.968;2022-07-09T03:11:15;25.70;71.20
49385;DHT22;36795;45.028;38.968;2022-07-09T03:14:02;25.70;70.90
49385;DHT22;36795;45.028;38.968;2022-07-09T03:16:48;25.70;70.50
49385;DHT22;36795;45.028;38.968;2022-07-09T03:19:37;25.80;70.20
49385;DHT22;36795;45.028;38.968;2022-07-09T03:22:24;25.80;69.70
49385;DHT22;36795;45.028;38.968;2022-07-09T03:25:09;25.80;69.60
49385;DHT22;36795;45.028;38.968;2022-07-09T03:27:56;25.90;69.50
49385;DHT22;36795;45.028;38.968;2022-07-09T03:30:42;26.00;69.10
49385;DHT22;36795;45.028;38.968;2022-07-09T03:33:28;26.20;68.80
49385;DHT22;36795;45.028;38.968;2022-07-09T03:36:14;26.30;68.50
49385;DHT22;36795;45.028;38.968;2022-07-09T03:39:01;26.30;68.40
49385;DHT22;36795;45.028;38.968;2022-07-09T03:41:47;26.40;68.30
49385;DHT22;36795;45.028;38.968;2022-07-09T03:44:33;26.40;68.10
49385;DHT22;36795;45.028;38.968;2022-07-09T03:47:20;26.40;67.80
49385;DHT22;36795;45.028;38.968;2022-07-09T03:50:06;26.50;67.80
49385;DHT22;36795;45.028;38.968;2022-07-09T03:52:52;26.60;67.70
49385;DHT22;36795;45.028;38.968;2022-07-09T03:55:38;26.60;67.50
49385;DHT22;36795;45.028;38.968;2022-07-09T03:58:24;26.60;67.50
49385;DHT22;36795;45.028;38.968;2022-07-09T04:01:10;26.80;67.60
49385;DHT22;36795;45.028;38.968;2022-07-09T04:03:57;26.80;67.60
49385;DHT22;36795;45.028;38.968;2022-07-09T04:06:43;26.80;67.70
49385;DHT22;36795;45.028;38.968;2022-07-09T04:09:29;26.80;68.00
49385;DHT22;36795;45.028;38.968;2022-07-09T04:12:15;26.80;67.90
49385;DHT22;36795;45.028;38.968;2022-07-09T04:15:02;26.80;67.60
49385;DHT22;36795;45.028;38.968;2022-07-09T04:17:47;26.80;67.60
49385;DHT22;36795;45.028;38.968;2022-07-09T04:20:34;26.80;67.60
49385;DHT22;36795;45.028;38.968;2022-07-09T04:23:19;26.90;67.60
49385;DHT22;36795;45.028;38.968;2022-07-09T04:26:06;26.90;67.40
49385;DHT22;36795;45.028;38.968;2022-07-09T04:28:52;27.00;67.20
49385;DHT22;36795;45.028;38.968;2022-07-09T04:31:38;27.10;67.10
49385;DHT22;36795;45.028;38.968;2022-07-09T04:34:24;27.10;67.30
49385;DHT22;36795;45.028;38.968;2022-07-09T04:37:10;27.10;67.20
49385;DHT22;36795;45.028;38.968;2022-07-09T04:39:56;27.30;67.10
49385;DHT22;36795;45.028;38.968;2022-07-09T04:42:42;27.30;66.80
49385;DHT22;36795;45.028;38.968;2022-07-09T04:45:28;27.30;66.50
49385;DHT22;36795;45.028;38.968;2022-07-09T04:48:15;27.40;66.90
49385;DHT22;36795;45.028;38.968;2022-07-09T04:51:01;27.40;66.90
49385;DHT22;36795;45.028;38.968;2022-07-09T04:53:47;27.50;66.70
49385;DHT22;36795;45.028;38.968;2022-07-09T04:56:33;27.50;66.20
49385;DHT22;36795;45.028;38.968;2022-07-09T04:59:19;27.60;65.40
49385;DHT22;36795;45.028;38.968;2022-07-09T05:02:06;27.60;65.10
49385;DHT22;36795;45.028;38.968;2022-07-09T05:04:52;27.70;65.10
49385;DHT22;36795;45.028;38.968;2022-07-09T05:07:38;27.70;64.10
49385;DHT22;36795;45.028;38.968;2022-07-09T05:10:24;27.60;64.20
49385;DHT22;36795;45.028;38.968;2022-07-09T05:13:10;27.70;63.70
49385;DHT22;36795;45.028;38.968;2022-07-09T05:15:57;27.80;62.90
49385;DHT22;36795;45.028;38.968;2022-07-09T05:18:42;27.70;62.90
49385;DHT22;36795;45.028;38.968;2022-07-09T05:21:29;27.70;63.10
49385;DHT22;36795;45.028;38.968;2022-07-09T05:24:15;27.60;63.20
49385;DHT22;36795;45.028;38.968;2022-07-09T05:27:01;27.60;63.10
49385;DHT22;36795;45.028;38.968;2022-07-09T05:29:47;27.60;62.90
49385;DHT22;36795;45.028;38.968;2022-07-09T05:32:33;27.60;63.10
49385;DHT22;36795;45.028;38.968;2022-07-09T05:35:19;27.60;63.20
49385;DHT22;36795;45.028;38.968;2022-07-09T05:38:06;27.70;63.20
49385;DHT22;36795;45.028;38.968;2022-07-09T05:40:52;27.80;63.20
49385;DHT22;36795;45.028;38.968;2022-07-09T05:43:38;28.10;63.10
49385;DHT22;36795;45.028;38.968;2022-07-09T05:46:24;28.30;62.60
49385;DHT22;36795;45.028;38.968;2022-07-09T05:49:11;28.50;62.20
49385;DHT22;36795;45.028;38.968;2022-07-09T05:51:57;28.50;61.80
49385;DHT22;36795;45.028;38.968;2022-07-09T05:54:44;28.50;61.20
49385;DHT22;36795;45.028;38.968;2022-07-09T05:57:30;28.60;61.40
49385;DHT22;36795;45.028;38.968;2022-07-09T06:00:16;28.50;61.50
49385;DHT22;36795;45.028;38.968;2022-07-09T06:03:02;28.60;61.10
49385;DHT22;36795;45.028;38.968;2022-07-09T06:05:48;28.60;61.00
49385;DHT22;36795;45.028;38.968;2022-07-09T06:08:35;28.70;60.60
49385;DHT22;36795;45.028;38.968;2022-07-09T06:11:21;28.80;60.20
49385;DHT22;36795;45.028;38.968;2022-07-09T06:14:07;28.80;60.10
49385;DHT22;36795;45.028;38.968;2022-07-09T06:16:53;28.70;60.40
49385;DHT22;36795;45.028;38.968;2022-07-09T06:19:41;28.70;60.70
49385;DHT22;36795;45.028;38.968;2022-07-09T06:22:27;28.60;60.70
49385;DHT22;36795;45.028;38.968;2022-07-09T06:25:13;28.60;61.10
49385;DHT22;36795;45.028;38.968;2022-07-09T06:27:59;28.60;60.90
49385;DHT22;36795;45.028;38.968;2022-07-09T06:30:45;28.60;60.90
49385;DHT22;36795;45.028;38.968;2022-07-09T06:33:31;28.50;60.80
49385;DHT22;36795;45.028;38.968;2022-07-09T06:36:17;28.70;60.80
49385;DHT22;36795;45.028;38.968;2022-07-09T06:39:03;28.80;60.90
49385;DHT22;36795;45.028;38.968;2022-07-09T06:42:08;29.00;60.40
49385;DHT22;36795;45.028;38.968;2022-07-09T06:44:54;29.00;59.90
49385;DHT22;36795;45.028;38.968;2022-07-09T06:47:40;29.00;59.90
49385;DHT22;36795;45.028;38.968;2022-07-09T06:50:26;28.90;59.60
49385;DHT22;36795;45.028;38.968;2022-07-09T06:53:12;28.80;59.70
49385;DHT22;36795;45.028;38.968;2022-07-09T06:55:58;28.80;60.00
49385;DHT22;36795;45.028;38.968;2022-07-09T06:58:44;28.90;59.40
49385;DHT22;36795;45.028;38.968;2022-07-09T07:01:30;29.10;59.00
49385;DHT22;36795;45.028;38.968;2022-07-09T07:04:16;29.20;58.90
49385;DHT22;36795;45.028;38.968;2022-07-09T07:07:02;29.10;58.90
49385;DHT22;36795;45.028;38.968;2022-07-09T07:09:50;29.20;59.00
49385;DHT22;36795;45.028;38.968;2022-07-09T07:12:36;29.30;58.80
49385;DHT22;36795;45.028;38.968;2022-07-09T07:15:22;29.50;58.90
49385;DHT22;36795;45.028;38.968;2022-07-09T07:18:08;29.70;58.20
49385;DHT22;36795;45.028;38.968;2022-07-09T07:20:54;29.70;56.80
49385;DHT22;36795;45.028;38.968;2022-07-09T07:23:40;29.70;57.20
49385;DHT22;36795;45.028;38.968;2022-07-09T07:26:26;29.80;57.00
49385;DHT22;36795;45.028;38.968;2022-07-09T07:29:12;29.90;56.60
49385;DHT22;36795;45.028;38.968;2022-07-09T07:31:59;29.90;55.40
49385;DHT22;36795;45.028;38.968;2022-07-09T07:34:45;30.00;55.10
49385;DHT22;36795;45.028;38.968;2022-07-09T07:37:31;29.90;55.30
49385;DHT22;36795;45.028;38.968;2022-07-09T07:40:17;29.90;55.20
49385;DHT22;36795;45.028;38.968;2022-07-09T07:43:03;30.00;55.50
49385;DHT22;36795;45.028;38.968;2022-07-09T07:45:49;30.00;55.00
49385;DHT22;36795;45.028;38.968;2022-07-09T07:48:35;30.00;55.40
49385;DHT22;36795;45.028;38.968;2022-07-09T07:51:21;30.20;55.60
49385;DHT22;36795;45.028;38.968;2022-07-09T07:54:07;30.30;54.80
49385;DHT22;36795;45.028;38.968;2022-07-09T07:56:53;30.40;54.70
49385;DHT22;36795;45.028;38.968;2022-07-09T07:59:40;30.50;54.40
49385;DHT22;36795;45.028;38.968;2022-07-09T08:02:25;30.50;54.40
49385;DHT22;36795;45.028;38.968;2022-07-09T08:05:13;30.60;53.80
49385;DHT22;36795;45.028;38.968;2022-07-09T08:07:59;30.60;53.70
49385;DHT22;36795;45.028;38.968;2022-07-09T08:10:46;30.60;53.80
49385;DHT22;36795;45.028;38.968;2022-07-09T08:13:33;30.70;53.80
49385;DHT22;36795;45.028;38.968;2022-07-09T08:16:20;30.80;53.30
49385;DHT22;36795;45.028;38.968;2022-07-09T08:19:05;30.80;52.80
49385;DHT22;36795;45.028;38.968;2022-07-09T08:21:52;30.80;52.80
49385;DHT22;36795;45.028;38.968;2022-07-09T08:24:37;30.80;53.10
49385;DHT22;36795;45.028;38.968;2022-07-09T08:27:23;30.90;52.80
49385;DHT22;36795;45.028;38.968;2022-07-09T08:30:09;30.90;53.40
49385;DHT22;36795;45.028;38.968;2022-07-09T08:32:56;31.00;53.30
49385;DHT22;36795;45.028;38.968;2022-07-09T08:35:42;31.10;52.90
49385;DHT22;36795;45.028;38.968;2022-07-09T08:38:28;31.20;52.60
49385;DHT22;36795;45.028;38.968;2022-07-09T08:41:18;31.30;52.30
49385;DHT22;36795;45.028;38.968;2022-07-09T08:44:11;31.30;51.80
49385;DHT22;36795;45.028;38.968;2022-07-09T08:46:57;31.30;51.50
49385;DHT22;36795;45.028;38.968;2022-07-09T08:49:47;31.30;51.20
49385;DHT22;36795;45.028;38.968;2022-07-09T08:52:35;31.30;51.20
49385;DHT22;36795;45.028;38.968;2022-07-09T08:55:22;31.30;51.50
49385;DHT22;36795;45.028;38.968;2022-07-09T08:58:10;31.40;51.00
49385;DHT22;36795;45.028;38.968;2022-07-09T09:00:58;31.50;51.30
49385;DHT22;36795;45.028;38.968;2022-07-09T09:03:44;31.60;51.30
49385;DHT22;36795;45.028;38.968;2022-07-09T09:06:36;31.70;51.70
49385;DHT22;36795;45.028;38.968;2022-07-09T09:09:23;31.70;51.80
49385;DHT22;36795;45.028;38.968;2022-07-09T09:12:11;31.80;51.80
49385;DHT22;36795;45.028;38.968;2022-07-09T09:14:57;31.80;51.90
49385;DHT22;36795;45.028;38.968;2022-07-09T09:17:43;31.90;52.00
49385;DHT22;36795;45.028;38.968;2022-07-09T09:20:32;32.00;51.30
49385;DHT22;36795;45.028;38.968;2022-07-09T09:23:18;32.00;51.40
49385;DHT22;36795;45.028;38.968;2022-07-09T09:26:16;32.20;51.10
49385;DHT22;36795;45.028;38.968;2022-07-09T09:29:04;32.30;51.20
49385;DHT22;36795;45.028;38.968;2022-07-09T09:31:50;32.20;51.30
49385;DHT22;36795;45.028;38.968;2022-07-09T09:34:36;32.20;52.00
49385;DHT22;36795;45.028;38.968;2022-07-09T09:37:29;32.40;51.30
49385;DHT22;36795;45.028;38.968;2022-07-09T09:40:16;32.50;50.60
49385;DHT22;36795;45.028;38.968;2022-07-09T09:43:02;32.60;50.50
49385;DHT22;36795;45.028;38.968;2022-07-09T09:45:54;32.70;50.10
49385;DHT22;36795;45.028;38.968;2022-07-09T09:48:44;32.90;50.10
49385;DHT22;36795;45.028;38.968;2022-07-09T09:51:31;32.90;50.00
49385;DHT22;36795;45.028;38.968;2022-07-09T09:54:20;32.90;49.80
49385;DHT22;36795;45.028;38.968;2022-07-09T09:57:08;32.80;49.60
49385;DHT22;36795;45.028;38.968;2022-07-09T09:59:56;32.80;50.20
49385;DHT22;36795;45.028;38.968;2022-07-09T10:02:47;32.90;50.00
49385;DHT22;36795;45.028;38.968;2022-07-09T10:05:34;33.00;49.90
49385;DHT22;36795;45.028;38.968;2022-07-09T10:08:20;33.00;49.70
49385;DHT22;36795;45.028;38.968;2022-07-09T10:11:06;32.80;49.80
49385;DHT22;36795;45.028;38.968;2022-07-09T10:13:56;32.70;50.00
49385;DHT22;36795;45.028;38.968;2022-07-09T10:16:42;32.60;50.70
49385;DHT22;36795;45.028;38.968;2022-07-09T10:19:29;32.60;50.80
49385;DHT22;36795;45.028;38.968;2022-07-09T10:22:16;32.80;50.60
49385;DHT22;36795;45.028;38.968;2022-07-09T10:25:03;33.00;50.20
49385;DHT22;36795;45.028;38.968;2022-07-09T10:27:50;33.00;49.80
49385;DHT22;36795;45.028;38.968;2022-07-09T10:30:36;33.00;49.90
49385;DHT22;36795;45.028;38.968;2022-07-09T10:33:31;33.20;49.20
49385;DHT22;36795;45.028;38.968;2022-07-09T10:36:18;33.30;49.10
49385;DHT22;36795;45.028;38.968;2022-07-09T10:39:12;33.20;49.30
49385;DHT22;36795;45.028;38.968;2022-07-09T10:42:06;33.30;49.10
49385;DHT22;36795;45.028;38.968;2022-07-09T10:44:52;33.30;49.20
49385;DHT22;36795;45.028;38.968;2022-07-09T10:47:39;33.20;49.50
49385;DHT22;36795;45.028;38.968;2022-07-09T10:50:27;33.00;49.80
49385;DHT22;36795;45.028;38.968;2022-07-09T10:53:14;33.00;49.60
49385;DHT22;36795;45.028;38.968;2022-07-09T10:56:00;33.00;49.50
49385;DHT22;36795;45.028;38.968;2022-07-09T10:58:47;33.00;49.50
49385;DHT22;36795;45.028;38.968;2022-07-09T11:01:34;33.00;49.00
49385;DHT22;36795;45.028;38.968;2022-07-09T11:04:30;33.10;49.30
49385;DHT22;36795;45.028;38.968;2022-07-09T11:07:22;33.40;48.80
49385;DHT22;36795;45.028;38.968;2022-07-09T11:10:08;33.50;48.90
49385;DHT22;36795;45.028;38.968;2022-07-09T11:13:05;33.50;49.00
49385;DHT22;36795;45.028;38.968;2022-07-09T11:15:58;33.40;49.50
49385;DHT22;36795;45.028;38.968;2022-07-09T11:18:45;33.10;49.60
49385;DHT22;36795;45.028;38.968;2022-07-09T11:21:32;32.80;49.90
49385;DHT22;36795;45.028;38.968;2022-07-09T11:24:20;32.70;50.30
49385;DHT22;36795;45.028;38.968;2022-07-09T11:27:09;32.80;49.90
49385;DHT22;36795;45.028;38.968;2022-07-09T11:30:01;33.10;49.70
49385;DHT22;36795;45.028;38.968;2022-07-09T11:32:49;33.50;48.80
49385;DHT22;36795;45.028;38.968;2022-07-09T11:35:35;33.60;48.30
49385;DHT22;36795;45.028;38.968;2022-07-09T11:38:21;33.20;48.30
49385;DHT22;36795;45.028;38.968;2022-07-09T11:41:08;32.80;49.10
49385;DHT22;36795;45.028;38.968;2022-07-09T11:43:54;32.50;49.60
49385;DHT22;36795;45.028;38.968;2022-07-09T11:46:40;32.30;49.90
49385;DHT22;36795;45.028;38.968;2022-07-09T11:51:01;32.10;50.40
49385;DHT22;36795;45.028;38.968;2022-07-09T11:53:50;31.90;51.60
49385;DHT22;36795;45.028;38.968;2022-07-09T11:56:44;31.80;52.10
49385;DHT22;36795;45.028;38.968;2022-07-09T11:59:31;31.80;52.50
49385;DHT22;36795;45.028;38.968;2022-07-09T12:02:38;31.70;52.80
49385;DHT22;36795;45.028;38.968;2022-07-09T12:08:29;31.70;52.60
49385;DHT22;36795;45.028;38.968;2022-07-09T12:11:26;31.60;53.20
49385;DHT22;36795;45.028;38.968;2022-07-09T12:14:12;31.40;53.30
49385;DHT22;36795;45.028;38.968;2022-07-09T12:16:59;31.40;53.60
49385;DHT22;36795;45.028;38.968;2022-07-09T12:19:45;31.40;53.50
49385;DHT22;36795;45.028;38.968;2022-07-09T12:22:32;31.40;53.10
49385;DHT22;36795;45.028;38.968;2022-07-09T12:25:19;31.40;53.00
49385;DHT22;36795;45.028;38.968;2022-07-09T12:28:05;31.40;53.40
49385;DHT22;36795;45.028;38.968;2022-07-09T12:30:52;31.30;53.40
49385;DHT22;36795;45.028;38.968;2022-07-09T12:33:38;31.30;53.70
49385;DHT22;36795;45.028;38.968;2022-07-09T12:36:24;31.30;53.60
49385;DHT22;36795;45.028;38.968;2022-07-09T12:39:10;31.20;53.30
49385;DHT22;36795;45.028;38.968;2022-07-09T12:41:56;31.20;53.40
49385;DHT22;36795;45.028;38.968;2022-07-09T12:44:43;31.20;53.60
49385;DHT22;36795;45.028;38.968;2022-07-09T12:47:29;31.20;53.80
49385;DHT22;36795;45.028;38.968;2022-07-09T12:50:15;31.10;53.70
49385;DHT22;36795;45.028;38.968;2022-07-09T12:53:02;31.10;53.50
49385;DHT22;36795;45.028;38.968;2022-07-09T12:55:48;31.00;53.30
49385;DHT22;36795;45.028;38.968;2022-07-09T12:58:34;31.00;53.50
49385;DHT22;36795;45.028;38.968;2022-07-09T13:01:20;31.00;54.20
49385;DHT22;36795;45.028;38.968;2022-07-09T13:04:07;31.00;55.00
49385;DHT22;36795;45.028;38.968;2022-07-09T13:06:53;30.90;55.90
49385;DHT22;36795;45.028;38.968;2022-07-09T13:09:39;30.90;56.50
49385;DHT22;36795;45.028;38.968;2022-07-09T13:12:26;30.80;56.70
49385;DHT22;36795;45.028;38.968;2022-07-09T13:15:12;30.80;57.00
49385;DHT22;36795;45.028;38.968;2022-07-09T13:17:58;30.80;57.00
49385;DHT22;36795;45.028;38.968;2022-07-09T13:20:44;31.00;57.00
49385;DHT22;36795;45.028;38.968;2022-07-09T13:23:33;31.40;56.10
49385;DHT22;36795;45.028;38.968;2022-07-09T13:26:19;32.00;55.10
49385;DHT22;36795;45.028;38.968;2022-07-09T13:29:06;32.30;54.10
49385;DHT22;36795;45.028;38.968;2022-07-09T13:31:52;32.90;53.30
49385;DHT22;36795;45.028;38.968;2022-07-09T13:34:38;33.40;51.90
49385;DHT22;36795;45.028;38.968;2022-07-09T13:37:24;33.50;51.60
49385;DHT22;36795;45.028;38.968;2022-07-09T13:40:11;33.50;51.70
49385;DHT22;36795;45.028;38.968;2022-07-09T13:42:57;33.50;51.40
49385;DHT22;36795;45.028;38.968;2022-07-09T13:45:43;33.30;51.10
49385;DHT22;36795;45.028;38.968;2022-07-09T13:48:29;33.00;51.00
49385;DHT22;36795;45.028;38.968;2022-07-09T13:51:15;32.70;50.80
49385;DHT22;36795;45.028;38.968;2022-07-09T13:54:01;32.50;51.40
49385;DHT22;36795;45.028;38.968;2022-07-09T13:56:47;32.40;51.90
49385;DHT22;36795;45.028;38.968;2022-07-09T13:59:33;32.20;52.00
49385;DHT22;36795;45.028;38.968;2022-07-09T14:02:19;32.10;52.20
49385;DHT22;36795;45.028;38.968;2022-07-09T14:05:06;32.00;52.30
49385;DHT22;36795;45.028;38.968;2022-07-09T14:07:52;32.00;52.50
49385;DHT22;36795;45.028;38.968;2022-07-09T14:10:38;32.20;51.70
49385;DHT22;36795;45.028;38.968;2022-07-09T14:13:27;32.90;50.20
49385;DHT22;36795;45.028;38.968;2022-07-09T14:16:15;33.60;48.80
49385;DHT22;36795;45.028;38.968;2022-07-09T14:19:01;34.10;48.10
49385;DHT22;36795;45.028;38.968;2022-07-09T14:21:47;34.10;47.80
49385;DHT22;36795;45.028;38.968;2022-07-09T14:24:33;34.00;48.20
49385;DHT22;36795;45.028;38.968;2022-07-09T14:27:31;33.80;48.70
49385;DHT22;36795;45.028;38.968;2022-07-09T14:30:17;33.60;49.10
49385;DHT22;36795;45.028;38.968;2022-07-09T14:33:03;33.40;49.50
49385;DHT22;36795;45.028;38.968;2022-07-09T14:35:49;33.30;49.70
49385;DHT22;36795;45.028;38.968;2022-07-09T14:38:35;33.20;49.90
49385;DHT22;36795;45.028;38.968;2022-07-09T14:41:23;33.10;50.50
49385;DHT22;36795;45.028;38.968;2022-07-09T14:44:09;33.20;50.90
49385;DHT22;36795;45.028;38.968;2022-07-09T14:46:57;33.20;51.00
49385;DHT22;36795;45.028;38.968;2022-07-09T14:49:46;33.20;51.10
49385;DHT22;36795;45.028;38.968;2022-07-09T14:52:32;33.30;51.10
49385;DHT22;36795;45.028;38.968;2022-07-09T14:55:19;33.20;51.10
49385;DHT22;36795;45.028;38.968;2022-07-09T14:58:04;33.20;51.40
49385;DHT22;36795;45.028;38.968;2022-07-09T15:00:51;33.10;51.60
49385;DHT22;36795;45.028;38.968;2022-07-09T15:03:37;32.90;51.70
49385;DHT22;36795;45.028;38.968;2022-07-09T15:06:23;32.80;51.90
49385;DHT22;36795;45.028;38.968;2022-07-09T15:09:08;32.60;52.00
49385;DHT22;36795;45.028;38.968;2022-07-09T15:11:55;32.50;52.20
49385;DHT22;36795;45.028;38.968;2022-07-09T15:14:41;32.30;52.40
49385;DHT22;36795;45.028;38.968;2022-07-09T15:17:27;32.30;52.80
49385;DHT22;36795;45.028;38.968;2022-07-09T15:20:13;32.10;52.90
49385;DHT22;36795;45.028;38.968;2022-07-09T15:23:00;32.10;53.40
49385;DHT22;36795;45.028;38.968;2022-07-09T15:25:46;32.00;53.70
49385;DHT22;36795;45.028;38.968;2022-07-09T15:28:33;31.90;54.20
49385;DHT22;36795;45.028;38.968;2022-07-09T15:31:20;31.80;54.60
49385;DHT22;36795;45.028;38.968;2022-07-09T15:34:08;31.80;54.90
49385;DHT22;36795;45.028;38.968;2022-07-09T15:36:54;31.70;55.10
49385;DHT22;36795;45.028;38.968;2022-07-09T15:39:40;31.70;55.10
49385;DHT22;36795;45.028;38.968;2022-07-09T15:42:27;31.70;55.10
49385;DHT22;36795;45.028;38.968;2022-07-09T15:45:15;31.70;55.30
49385;DHT22;36795;45.028;38.968;2022-07-09T15:48:03;31.60;55.20
49385;DHT22;36795;45.028;38.968;2022-07-09T15:50:51;31.60;55.40
49385;DHT22;36795;45.028;38.968;2022-07-09T15:53:37;31.60;55.50
49385;DHT22;36795;45.028;38.968;2022-07-09T15:56:24;31.50;55.30
49385;DHT22;36795;45.028;38.968;2022-07-09T15:59:10;31.50;55.50
49385;DHT22;36795;45.028;38.968;2022-07-09T16:01:57;31.40;55.50
49385;DHT22;36795;45.028;38.968;2022-07-09T16:04:43;31.50;55.60
49385;DHT22;36795;45.028;38.968;2022-07-09T16:07:29;31.40;55.70
49385;DHT22;36795;45.028;38.968;2022-07-09T16:10:15;31.30;56.00
49385;DHT22;36795;45.028;38.968;2022-07-09T16:13:01;31.30;56.20
49385;DHT22;36795;45.028;38.968;2022-07-09T16:15:48;31.30;56.30
49385;DHT22;36795;45.028;38.968;2022-07-09T16:18:33;31.30;56.50
49385;DHT22;36795;45.028;38.968;2022-07-09T16:21:20;31.20;56.60
49385;DHT22;36795;45.028;38.968;2022-07-09T16:24:07;31.20;56.60
49385;DHT22;36795;45.028;38.968;2022-07-09T16:26:53;31.10;56.60
49385;DHT22;36795;45.028;38.968;2022-07-09T16:29:40;31.10;56.80
49385;DHT22;36795;45.028;38.968;2022-07-09T16:32:26;31.10;57.10
49385;DHT22;36795;45.028;38.968;2022-07-09T16:35:13;31.00;56.60
49385;DHT22;36795;45.028;38.968;2022-07-09T16:37:59;31.00;56.30
49385;DHT22;36795;45.028;38.968;2022-07-09T16:40:44;30.90;56.00
49385;DHT22;36795;45.028;38.968;2022-07-09T16:43:31;30.90;56.00
49385;DHT22;36795;45.028;38.968;2022-07-09T16:46:16;30.80;55.90
49385;DHT22;36795;45.028;38.968;2022-07-09T16:49:04;30.70;55.80
49385;DHT22;36795;45.028;38.968;2022-07-09T16:51:50;30.70;55.90
49385;DHT22;36795;45.028;38.968;2022-07-09T16:54:36;30.60;55.90
49385;DHT22;36795;45.028;38.968;2022-07-09T16:57:22;30.50;56.10
49385;DHT22;36795;45.028;38.968;2022-07-09T17:00:09;30.50;56.30
49385;DHT22;36795;45.028;38.968;2022-07-09T17:02:55;30.40;56.50
49385;DHT22;36795;45.028;38.968;2022-07-09T17:05:42;30.30;56.70
49385;DHT22;36795;45.028;38.968;2022-07-09T17:08:28;30.30;56.90
49385;DHT22;36795;45.028;38.968;2022-07-09T17:11:15;30.20;56.70
49385;DHT22;36795;45.028;38.968;2022-07-09T17:14:01;30.10;56.50
49385;DHT22;36795;45.028;38.968;2022-07-09T17:16:48;30.10;56.30
49385;DHT22;36795;45.028;38.968;2022-07-09T17:19:34;30.10;56.40
49385;DHT22;36795;45.028;38.968;2022-07-09T17:22:20;30.00;56.30